sensor_id;sensor_type;location;lat;lon;timestamp;P1;durP1;ratioP1;P2;durP2;ratioP2
17741;SDS011;8993;51.822;-2.268;2022-11-12T00:02:13;6.38;;;1.45;;
17741;SDS011;8993;51.822;-2.268;2022-11-12T00:07:18;10.05;;;1.66;;
17741;SDS011;8993;51.822;-2.268;2022-11-12T00:12:22;7.68;;;1.62;;
17741;SDS011;8993;51.822;-2.268;2022-11-12T00:17:30;9.62;;;1.76;;
17741;SDS011;8993;51.822;-2.268;2022-11-12T00:22:35;9.82;;;1.64;;
17741;SDS011;8993;51.822;-2.268;2022-11-12T00:27:39;10.97;;;1.64;;
17741;SDS011;8993;51.822;-2.268;2022-11-12T00:32:43;7.96;;;1.57;;
17741;SDS011;8993;51.822;-2.268;2022-11-12T00:37:52;8.05;;;1.42;;
17741;SDS011;8993;51.822;-2.268;2022-11-12T00:42:56;11.67;;;1.88;;
17741;SDS011;8993;51.822;-2.268;2022-11-12T00:48:01;7.85;;;1.32;;
17741;SDS011;8993;51.822;-2.268;2022-11-12T00:53:05;7.82;;;1.52;;
17741;SDS011;8993;51.822;-2.268;2022-11-12T00:58:10;7.43;;;1.75;;
17741;SDS011;8993;51.822;-2.268;2022-11-12T01:03:14;9.05;;;1.68;;
17741;SDS011;8993;51.822;-2.268;2022-11-12T01:08:21;9.62;;;1.67;;
17741;SDS011;8993;51.822;-2.268;2022-11-12T01:13:25;9.51;;;1.91;;
17741;SDS011;8993;51.822;-2.268;2022-11-12T01:18:30;10.62;;;2.04;;
17741;SDS011;8993;51.822;-2.268;2022-11-12T01:23:35;12.14;;;1.84;;
17741;SDS011;8993;51.822;-2.268;2022-11-12T01:28:40;8.14;;;2.15;;
17741;SDS011;8993;51.822;-2.268;2022-11-12T01:33:45;9.00;;;1.99;;
17741;SDS011;8993;51.822;-2.268;2022-11-12T01:38:50;9.43;;;2.12;;
17741;SDS011;8993;51.822;-2.268;2022-11-12T01:44:11;8.35;;;2.11;;
17741;SDS011;8993;51.822;-2.268;2022-11-12T01:49:00;9.80;;;2.31;;
17741;SDS011;8993;51.822;-2.268;2022-11-12T01:54:03;11.36;;;2.28;;
17741;SDS011;8993;51.822;-2.268;2022-11-12T01:59:09;9.00;;;2.19;;
17741;SDS011;8993;51.822;-2.268;2022-11-12T02:04:12;11.44;;;2.56;;
17741;SDS011;8993;51.822;-2.268;2022-11-12T02:09:16;11.03;;;2.36;;
17741;SDS011;8993;51.822;-2.268;2022-11-12T02:14:20;9.50;;;2.55;;
17741;SDS011;8993;51.822;-2.268;2022-11-12T02:19:24;10.70;;;2.68;;
17741;SDS011;8993;51.822;-2.268;2022-11-12T02:24:31;14.48;;;2.81;;
17741;SDS011;8993;51.822;-2.268;2022-11-12T02:29:34;10.80;;;2.47;;
17741;SDS011;8993;51.822;-2.268;2022-11-12T02:34:38;10.73;;;2.58;;
17741;SDS011;8993;51.822;-2.268;2022-11-12T02:39:42;8.92;;;2.34;;
17741;SDS011;8993;51.822;-2.268;2022-11-12T02:44:47;7.86;;;2.36;;
17741;SDS011;8993;51.822;-2.268;2022-11-12T02:49:52;8.90;;;2.27;;
17741;SDS011;8993;51.822;-2.268;2022-11-12T02:54:55;7.88;;;2.09;;
17741;SDS011;8993;51.822;-2.268;2022-11-12T03:00:02;8.35;;;2.44;;
17741;SDS011;8993;51.822;-2.268;2022-11-12T03:05:06;10.00;;;2.54;;
17741;SDS011;8993;51.822;-2.268;2022-11-12T03:10:10;6.99;;;2.33;;
17741;SDS011;8993;51.822;-2.268;2022-11-12T03:15:14;7.86;;;2.19;;
17741;SDS011;8993;51.822;-2.268;2022-11-12T03:20:18;8.23;;;2.23;;
17741;SDS011;8993;51.822;-2.268;2022-11-12T03:25:22;7.99;;;2.51;;
17741;SDS011;8993;51.822;-2.268;2022-11-12T03:30:30;10.38;;;2.66;;
17741;SDS011;8993;51.822;-2.268;2022-11-12T03:35:32;7.80;;;2.43;;
17741;SDS011;8993;51.822;-2.268;2022-11-12T03:40:36;13.56;;;2.99;;
17741;SDS011;8993;51.822;-2.268;2022-11-12T03:45:42;11.82;;;3.12;;
17741;SDS011;8993;51.822;-2.268;2022-11-12T03:50:46;8.56;;;2.67;;
17741;SDS011;8993;51.822;-2.268;2022-11-12T03:55:51;7.55;;;2.49;;
17741;SDS011;8993;51.822;-2.268;2022-11-12T04:00:55;10.74;;;2.63;;
17741;SDS011;8993;51.822;-2.268;2022-11-12T04:06:00;10.50;;;2.92;;
17741;SDS011;8993;51.822;-2.268;2022-11-12T04:11:05;7.81;;;2.59;;
17741;SDS011;8993;51.822;-2.268;2022-11-12T04:16:11;11.62;;;3.06;;
17741;SDS011;8993;51.822;-2.268;2022-11-12T04:21:14;8.74;;;2.61;;
17741;SDS011;8993;51.822;-2.268;2022-11-12T04:26:18;6.79;;;2.70;;
17741;SDS011;8993;51.822;-2.268;2022-11-12T04:31:23;11.04;;;3.52;;
17741;SDS011;8993;51.822;-2.268;2022-11-12T04:36:27;13.48;;;3.22;;
17741;SDS011;8993;51.822;-2.268;2022-11-12T04:41:32;10.97;;;3.74;;
17741;SDS011;8993;51.822;-2.268;2022-11-12T04:46:40;11.42;;;4.23;;
17741;SDS011;8993;51.822;-2.268;2022-11-12T04:51:44;10.89;;;4.15;;
17741;SDS011;8993;51.822;-2.268;2022-11-12T04:56:49;11.83;;;4.48;;
17741;SDS011;8993;51.822;-2.268;2022-11-12T05:01:53;12.67;;;4.71;;
17741;SDS011;8993;51.822;-2.268;2022-11-12T05:06:59;12.81;;;5.18;;
17741;SDS011;8993;51.822;-2.268;2022-11-12T05:12:03;17.17;;;5.85;;
17741;SDS011;8993;51.822;-2.268;2022-11-12T05:17:07;14.74;;;6.56;;
17741;SDS011;8993;51.822;-2.268;2022-11-12T05:22:12;16.97;;;7.04;;
17741;SDS011;8993;51.822;-2.268;2022-11-12T05:27:17;17.43;;;7.92;;
17741;SDS011;8993;51.822;-2.268;2022-11-12T05:32:20;21.10;;;8.69;;
17741;SDS011;8993;51.822;-2.268;2022-11-12T05:37:24;19.83;;;9.63;;
17741;SDS011;8993;51.822;-2.268;2022-11-12T05:42:28;25.84;;;10.86;;
17741;SDS011;8993;51.822;-2.268;2022-11-12T05:47:33;23.48;;;11.39;;
17741;SDS011;8993;51.822;-2.268;2022-11-12T05:52:37;23.27;;;11.31;;
17741;SDS011;8993;51.822;-2.268;2022-11-12T05:57:42;24.98;;;11.99;;
17741;SDS011;8993;51.822;-2.268;2022-11-12T06:02:46;24.09;;;11.69;;
17741;SDS011;8993;51.822;-2.268;2022-11-12T06:07:51;24.47;;;12.04;;
17741;SDS011;8993;51.822;-2.268;2022-11-12T06:12:55;24.09;;;11.38;;
17741;SDS011;8993;51.822;-2.268;2022-11-12T06:17:59;24.69;;;11.56;;
17741;SDS011;8993;51.822;-2.268;2022-11-12T06:23:04;21.86;;;11.08;;
17741;SDS011;8993;51.822;-2.268;2022-11-12T06:28:08;21.72;;;10.41;;
17741;SDS011;8993;51.822;-2.268;2022-11-12T06:33:13;21.82;;;10.33;;
17741;SDS011;8993;51.822;-2.268;2022-11-12T06:38:19;23.47;;;10.32;;
17741;SDS011;8993;51.822;-2.268;2022-11-12T06:43:23;19.93;;;9.27;;
17741;SDS011;8993;51.822;-2.268;2022-11-12T06:48:28;20.69;;;9.74;;
17741;SDS011;8993;51.822;-2.268;2022-11-12T06:53:31;17.48;;;8.85;;
17741;SDS011;8993;51.822;-2.268;2022-11-12T06:58:36;22.03;;;9.44;;
17741;SDS011;8993;51.822;-2.268;2022-11-12T07:03:41;19.61;;;9.38;;
17741;SDS011;8993;51.822;-2.268;2022-11-12T07:08:45;19.54;;;9.66;;
17741;SDS011;8993;51.822;-2.268;2022-11-12T07:13:49;21.38;;;9.34;;
17741;SDS011;8993;51.822;-2.268;2022-11-12T07:18:53;19.46;;;9.64;;
17741;SDS011;8993;51.822;-2.268;2022-11-12T07:23:57;20.90;;;10.31;;
17741;SDS011;8993;51.822;-2.268;2022-11-12T07:29:02;24.10;;;10.73;;
17741;SDS011;8993;51.822;-2.268;2022-11-12T07:34:06;20.18;;;10.97;;
17741;SDS011;8993;51.822;-2.268;2022-11-12T07:39:10;19.52;;;10.24;;
17741;SDS011;8993;51.822;-2.268;2022-11-12T07:44:14;18.45;;;10.16;;
17741;SDS011;8993;51.822;-2.268;2022-11-12T07:49:19;21.36;;;10.57;;
17741;SDS011;8993;51.822;-2.268;2022-11-12T07:54:23;21.67;;;10.88;;
17741;SDS011;8993;51.822;-2.268;2022-11-12T07:59:27;20.86;;;11.36;;
17741;SDS011;8993;51.822;-2.268;2022-11-12T08:04:31;21.66;;;11.10;;
17741;SDS011;8993;51.822;-2.268;2022-11-12T08:09:35;20.45;;;11.04;;
17741;SDS011;8993;51.822;-2.268;2022-11-12T08:14:40;20.30;;;10.87;;
17741;SDS011;8993;51.822;-2.268;2022-11-12T08:19:44;24.53;;;11.35;;
17741;SDS011;8993;51.822;-2.268;2022-11-12T08:24:48;20.72;;;10.99;;
17741;SDS011;8993;51.822;-2.268;2022-11-12T08:29:53;18.55;;;10.83;;
17741;SDS011;8993;51.822;-2.268;2022-11-12T08:34:59;18.77;;;9.96;;
17741;SDS011;8993;51.822;-2.268;2022-11-12T08:40:04;15.69;;;9.51;;
17741;SDS011;8993;51.822;-2.268;2022-11-12T08:45:08;19.17;;;10.74;;
17741;SDS011;8993;51.822;-2.268;2022-11-12T08:50:12;20.51;;;10.60;;
17741;SDS011;8993;51.822;-2.268;2022-11-12T08:55:16;24.07;;;11.87;;
17741;SDS011;8993;51.822;-2.268;2022-11-12T09:00:21;20.51;;;10.64;;
17741;SDS011;8993;51.822;-2.268;2022-11-12T09:05:25;21.66;;;11.51;;
17741;SDS011;8993;51.822;-2.268;2022-11-12T09:10:29;23.26;;;11.40;;
17741;SDS011;8993;51.822;-2.268;2022-11-12T09:15:33;23.71;;;12.13;;
17741;SDS011;8993;51.822;-2.268;2022-11-12T09:20:37;23.05;;;11.43;;
17741;SDS011;8993;51.822;-2.268;2022-11-12T09:25:42;20.26;;;11.94;;
17741;SDS011;8993;51.822;-2.268;2022-11-12T09:30:47;21.52;;;11.76;;
17741;SDS011;8993;51.822;-2.268;2022-11-12T09:35:50;23.13;;;12.43;;
17741;SDS011;8993;51.822;-2.268;2022-11-12T09:41:06;22.48;;;12.20;;
17741;SDS011;8993;51.822;-2.268;2022-11-12T09:46:00;25.64;;;12.61;;
17741;SDS011;8993;51.822;-2.268;2022-11-12T09:51:04;22.43;;;13.15;;
17741;SDS011;8993;51.822;-2.268;2022-11-12T09:56:09;22.47;;;12.84;;
17741;SDS011;8993;51.822;-2.268;2022-11-12T10:01:12;22.91;;;12.10;;
17741;SDS011;8993;51.822;-2.268;2022-11-12T10:06:17;21.81;;;11.96;;
17741;SDS011;8993;51.822;-2.268;2022-11-12T10:11:23;20.68;;;11.99;;
17741;SDS011;8993;51.822;-2.268;2022-11-12T10:16:28;21.56;;;11.44;;
17741;SDS011;8993;51.822;-2.268;2022-11-12T10:21:29;18.29;;;10.83;;
17741;SDS011;8993;51.822;-2.268;2022-11-12T10:26:32;19.18;;;11.38;;
17741;SDS011;8993;51.822;-2.268;2022-11-12T10:31:36;21.53;;;12.19;;
17741;SDS011;8993;51.822;-2.268;2022-11-12T10:36:41;21.69;;;11.40;;
17741;SDS011;8993;51.822;-2.268;2022-11-12T10:41:45;19.85;;;11.63;;
17741;SDS011;8993;51.822;-2.268;2022-11-12T10:46:50;24.69;;;12.69;;
17741;SDS011;8993;51.822;-2.268;2022-11-12T10:51:54;21.88;;;12.87;;
17741;SDS011;8993;51.822;-2.268;2022-11-12T10:56:59;20.61;;;11.94;;
17741;SDS011;8993;51.822;-2.268;2022-11-12T11:02:02;20.76;;;12.60;;
17741;SDS011;8993;51.822;-2.268;2022-11-12T11:07:15;23.16;;;12.05;;
17741;SDS011;8993;51.822;-2.268;2022-11-12T11:12:21;20.59;;;12.06;;
17741;SDS011;8993;51.822;-2.268;2022-11-12T11:17:18;19.42;;;11.85;;
17741;SDS011;8993;51.822;-2.268;2022-11-12T11:22:27;20.15;;;11.88;;
17741;SDS011;8993;51.822;-2.268;2022-11-12T11:27:30;19.91;;;12.28;;
17741;SDS011;8993;51.822;-2.268;2022-11-12T11:32:37;20.53;;;12.00;;
17741;SDS011;8993;51.822;-2.268;2022-11-12T11:37:37;20.71;;;11.44;;
17741;SDS011;8993;51.822;-2.268;2022-11-12T11:42:47;16.91;;;10.77;;
17741;SDS011;8993;51.822;-2.268;2022-11-12T11:47:49;17.13;;;10.76;;
17741;SDS011;8993;51.822;-2.268;2022-11-12T11:52:51;15.26;;;10.03;;
17741;SDS011;8993;51.822;-2.268;2022-11-12T11:57:55;15.96;;;9.97;;
17741;SDS011;8993;51.822;-2.268;2022-11-12T12:03:05;16.82;;;10.22;;
17741;SDS011;8993;51.822;-2.268;2022-11-12T12:08:04;15.22;;;9.09;;
17741;SDS011;8993;51.822;-2.268;2022-11-12T12:13:08;16.01;;;9.27;;
17741;SDS011;8993;51.822;-2.268;2022-11-12T12:18:13;15.07;;;8.09;;
17741;SDS011;8993;51.822;-2.268;2022-11-12T12:23:20;13.26;;;7.27;;
17741;SDS011;8993;51.822;-2.268;2022-11-12T12:28:25;11.86;;;6.07;;
17741;SDS011;8993;51.822;-2.268;2022-11-12T12:33:27;11.55;;;5.77;;
17741;SDS011;8993;51.822;-2.268;2022-11-12T12:38:31;9.12;;;5.29;;
17741;SDS011;8993;51.822;-2.268;2022-11-12T12:43:36;9.23;;;4.80;;
17741;SDS011;8993;51.822;-2.268;2022-11-12T12:48:40;10.20;;;4.45;;
17741;SDS011;8993;51.822;-2.268;2022-11-12T12:53:44;11.14;;;4.21;;
17741;SDS011;8993;51.822;-2.268;2022-11-12T12:58:49;9.09;;;3.81;;
17741;SDS011;8993;51.822;-2.268;2022-11-12T13:03:54;7.64;;;3.77;;
17741;SDS011;8993;51.822;-2.268;2022-11-12T13:08:59;9.10;;;3.38;;
17741;SDS011;8993;51.822;-2.268;2022-11-12T13:14:14;8.02;;;3.30;;
17741;SDS011;8993;51.822;-2.268;2022-11-12T13:19:06;8.47;;;3.68;;
17741;SDS011;8993;51.822;-2.268;2022-11-12T13:24:11;8.02;;;3.30;;
17741;SDS011;8993;51.822;-2.268;2022-11-12T13:29:17;8.82;;;3.36;;
17741;SDS011;8993;51.822;-2.268;2022-11-12T13:34:21;8.86;;;3.02;;
17741;SDS011;8993;51.822;-2.268;2022-11-12T13:39:24;10.46;;;3.79;;
17741;SDS011;8993;51.822;-2.268;2022-11-12T13:44:28;7.69;;;2.61;;
17741;SDS011;8993;51.822;-2.268;2022-11-12T13:49:32;7.86;;;2.63;;
17741;SDS011;8993;51.822;-2.268;2022-11-12T13:54:37;6.04;;;2.33;;
17741;SDS011;8993;51.822;-2.268;2022-11-12T13:59:40;8.79;;;2.28;;
17741;SDS011;8993;51.822;-2.268;2022-11-12T14:04:45;7.76;;;2.18;;
17741;SDS011;8993;51.822;-2.268;2022-11-12T14:09:52;7.90;;;2.05;;
17741;SDS011;8993;51.822;-2.268;2022-11-12T14:15:00;7.01;;;2.06;;
17741;SDS011;8993;51.822;-2.268;2022-11-12T14:20:08;9.73;;;2.09;;
17741;SDS011;8993;51.822;-2.268;2022-11-12T14:25:10;6.00;;;1.89;;
17741;SDS011;8993;51.822;-2.268;2022-11-12T14:30:11;7.89;;;1.92;;
17741;SDS011;8993;51.822;-2.268;2022-11-12T14:35:16;7.59;;;2.03;;
17741;SDS011;8993;51.822;-2.268;2022-11-12T14:40:16;5.82;;;1.86;;
17741;SDS011;8993;51.822;-2.268;2022-11-12T14:45:21;5.79;;;1.80;;
17741;SDS011;8993;51.822;-2.268;2022-11-12T14:50:27;5.87;;;1.87;;
17741;SDS011;8993;51.822;-2.268;2022-11-12T14:55:29;7.76;;;1.75;;
17741;SDS011;8993;51.822;-2.268;2022-11-12T15:00:36;5.85;;;1.81;;
17741;SDS011;8993;51.822;-2.268;2022-11-12T15:05:51;7.48;;;1.84;;
17741;SDS011;8993;51.822;-2.268;2022-11-12T15:10:42;6.46;;;1.88;;
17741;SDS011;8993;51.822;-2.268;2022-11-12T15:15:49;7.78;;;1.77;;
17741;SDS011;8993;51.822;-2.268;2022-11-12T15:21:09;7.61;;;2.31;;
17741;SDS011;8993;51.822;-2.268;2022-11-12T15:25:56;7.60;;;1.77;;
17741;SDS011;8993;51.822;-2.268;2022-11-12T15:31:01;5.66;;;1.74;;
17741;SDS011;8993;51.822;-2.268;2022-11-12T15:36:10;7.12;;;2.10;;
17741;SDS011;8993;51.822;-2.268;2022-11-12T15:41:17;12.58;;;5.10;;
17741;SDS011;8993;51.822;-2.268;2022-11-12T15:46:13;15.46;;;5.54;;
17741;SDS011;8993;51.822;-2.268;2022-11-12T15:51:17;8.96;;;2.47;;
17741;SDS011;8993;51.822;-2.268;2022-11-12T15:56:21;9.61;;;2.77;;
17741;SDS011;8993;51.822;-2.268;2022-11-12T16:01:25;17.32;;;7.58;;
17741;SDS011;8993;51.822;-2.268;2022-11-12T16:06:30;17.39;;;7.51;;
17741;SDS011;8993;51.822;-2.268;2022-11-12T16:11:34;13.46;;;5.80;;
17741;SDS011;8993;51.822;-2.268;2022-11-12T16:16:38;12.68;;;3.92;;
17741;SDS011;8993;51.822;-2.268;2022-11-12T16:21:42;17.23;;;7.31;;
17741;SDS011;8993;51.822;-2.268;2022-11-12T16:26:47;11.19;;;3.05;;
17741;SDS011;8993;51.822;-2.268;2022-11-12T16:31:51;13.54;;;5.64;;
17741;SDS011;8993;51.822;-2.268;2022-11-12T16:36:57;11.86;;;3.78;;
17741;SDS011;8993;51.822;-2.268;2022-11-12T16:42:01;9.24;;;2.80;;
17741;SDS011;8993;51.822;-2.268;2022-11-12T16:47:05;7.32;;;2.32;;
17741;SDS011;8993;51.822;-2.268;2022-11-12T16:52:09;9.27;;;3.38;;
17741;SDS011;8993;51.822;-2.268;2022-11-12T16:57:14;13.62;;;5.19;;
17741;SDS011;8993;51.822;-2.268;2022-11-12T17:02:18;18.73;;;7.77;;
17741;SDS011;8993;51.822;-2.268;2022-11-12T17:07:22;24.75;;;10.58;;
17741;SDS011;8993;51.822;-2.268;2022-11-12T17:12:27;25.08;;;9.91;;
17741;SDS011;8993;51.822;-2.268;2022-11-12T17:17:31;22.11;;;8.18;;
17741;SDS011;8993;51.822;-2.268;2022-11-12T17:22:35;18.26;;;6.82;;
17741;SDS011;8993;51.822;-2.268;2022-11-12T17:27:40;13.61;;;5.24;;
17741;SDS011;8993;51.822;-2.268;2022-11-12T17:32:44;11.64;;;3.75;;
17741;SDS011;8993;51.822;-2.268;2022-11-12T17:37:48;10.11;;;3.58;;
17741;SDS011;8993;51.822;-2.268;2022-11-12T17:42:52;14.08;;;4.95;;
17741;SDS011;8993;51.822;-2.268;2022-11-12T17:47:57;14.84;;;5.87;;
17741;SDS011;8993;51.822;-2.268;2022-11-12T17:53:01;14.37;;;5.53;;
17741;SDS011;8993;51.822;-2.268;2022-11-12T17:58:05;17.54;;;6.38;;
17741;SDS011;8993;51.822;-2.268;2022-11-12T18:03:09;21.14;;;8.13;;
17741;SDS011;8993;51.822;-2.268;2022-11-12T18:08:13;19.90;;;7.30;;
17741;SDS011;8993;51.822;-2.268;2022-11-12T18:13:17;11.31;;;4.05;;
17741;SDS011;8993;51.822;-2.268;2022-11-12T18:18:22;16.47;;;5.05;;
17741;SDS011;8993;51.822;-2.268;2022-11-12T18:23:26;17.06;;;6.85;;
17741;SDS011;8993;51.822;-2.268;2022-11-12T18:28:31;15.85;;;6.18;;
17741;SDS011;8993;51.822;-2.268;2022-11-12T18:33:36;14.22;;;5.23;;
17741;SDS011;8993;51.822;-2.268;2022-11-12T18:38:39;10.88;;;4.00;;
17741;SDS011;8993;51.822;-2.268;2022-11-12T18:43:44;11.71;;;3.42;;
17741;SDS011;8993;51.822;-2.268;2022-11-12T18:48:48;9.97;;;3.17;;
17741;SDS011;8993;51.822;-2.268;2022-11-12T18:53:52;10.37;;;3.36;;
17741;SDS011;8993;51.822;-2.268;2022-11-12T18:58:57;12.18;;;5.06;;
17741;SDS011;8993;51.822;-2.268;2022-11-12T19:04:01;12.31;;;4.63;;
17741;SDS011;8993;51.822;-2.268;2022-11-12T19:09:05;10.68;;;4.01;;
17741;SDS011;8993;51.822;-2.268;2022-11-12T19:14:09;11.09;;;4.25;;
17741;SDS011;8993;51.822;-2.268;2022-11-12T19:19:13;16.28;;;4.97;;
17741;SDS011;8993;51.822;-2.268;2022-11-12T19:24:18;11.34;;;4.67;;
17741;SDS011;8993;51.822;-2.268;2022-11-12T19:29:22;11.21;;;4.88;;
17741;SDS011;8993;51.822;-2.268;2022-11-12T19:34:26;14.92;;;5.77;;
17741;SDS011;8993;51.822;-2.268;2022-11-12T19:39:30;14.85;;;6.25;;
17741;SDS011;8993;51.822;-2.268;2022-11-12T19:44:35;11.45;;;5.64;;
17741;SDS011;8993;51.822;-2.268;2022-11-12T19:49:39;15.12;;;6.15;;
17741;SDS011;8993;51.822;-2.268;2022-11-12T19:54:43;16.36;;;6.30;;
17741;SDS011;8993;51.822;-2.268;2022-11-12T19:59:48;18.72;;;7.06;;
17741;SDS011;8993;51.822;-2.268;2022-11-12T20:04:52;17.37;;;7.72;;
17741;SDS011;8993;51.822;-2.268;2022-11-12T20:09:56;16.25;;;7.16;;
17741;SDS011;8993;51.822;-2.268;2022-11-12T20:15:00;16.41;;;7.07;;
17741;SDS011;8993;51.822;-2.268;2022-11-12T20:20:05;22.12;;;8.98;;
17741;SDS011;8993;51.822;-2.268;2022-11-12T20:25:09;18.15;;;9.27;;
17741;SDS011;8993;51.822;-2.268;2022-11-12T20:30:13;17.43;;;9.34;;
17741;SDS011;8993;51.822;-2.268;2022-11-12T20:35:17;20.89;;;9.74;;
17741;SDS011;8993;51.822;-2.268;2022-11-12T20:40:23;17.78;;;9.11;;
17741;SDS011;8993;51.822;-2.268;2022-11-12T20:45:28;18.85;;;9.21;;
17741;SDS011;8993;51.822;-2.268;2022-11-12T20:50:33;19.30;;;9.38;;
17741;SDS011;8993;51.822;-2.268;2022-11-12T20:55:38;23.21;;;10.20;;
17741;SDS011;8993;51.822;-2.268;2022-11-12T21:00:42;22.24;;;10.07;;
17741;SDS011;8993;51.822;-2.268;2022-11-12T21:05:46;22.45;;;10.42;;
17741;SDS011;8993;51.822;-2.268;2022-11-12T21:10:50;23.74;;;10.59;;
17741;SDS011;8993;51.822;-2.268;2022-11-12T21:15:54;20.65;;;10.70;;
17741;SDS011;8993;51.822;-2.268;2022-11-12T21:20:59;23.11;;;11.23;;
17741;SDS011;8993;51.822;-2.268;2022-11-12T21:26:03;22.33;;;11.25;;
17741;SDS011;8993;51.822;-2.268;2022-11-12T21:31:07;20.94;;;11.56;;
17741;SDS011;8993;51.822;-2.268;2022-11-12T21:36:11;25.20;;;13.42;;
17741;SDS011;8993;51.822;-2.268;2022-11-12T21:41:16;28.27;;;14.38;;
17741;SDS011;8993;51.822;-2.268;2022-11-12T21:46:20;29.87;;;14.78;;
17741;SDS011;8993;51.822;-2.268;2022-11-12T21:51:25;24.18;;;13.62;;
17741;SDS011;8993;51.822;-2.268;2022-11-12T21:56:28;28.16;;;15.24;;
17741;SDS011;8993;51.822;-2.268;2022-11-12T22:01:32;30.41;;;15.77;;
17741;SDS011;8993;51.822;-2.268;2022-11-12T22:06:41;32.73;;;18.61;;
17741;SDS011;8993;51.822;-2.268;2022-11-12T22:11:45;38.47;;;21.11;;
17741;SDS011;8993;51.822;-2.268;2022-11-12T22:16:51;39.52;;;22.49;;
17741;SDS011;8993;51.822;-2.268;2022-11-12T22:21:54;43.79;;;24.16;;
17741;SDS011;8993;51.822;-2.268;2022-11-12T22:26:59;46.29;;;25.73;;
17741;SDS011;8993;51.822;-2.268;2022-11-12T22:32:03;45.55;;;25.52;;
17741;SDS011;8993;51.822;-2.268;2022-11-12T22:37:08;49.85;;;28.32;;
17741;SDS011;8993;51.822;-2.268;2022-11-12T22:42:12;46.36;;;26.03;;
17741;SDS011;8993;51.822;-2.268;2022-11-12T22:47:16;48.22;;;27.11;;
17741;SDS011;8993;51.822;-2.268;2022-11-12T22:52:20;51.73;;;28.23;;
17741;SDS011;8993;51.822;-2.268;2022-11-12T22:57:26;47.01;;;27.08;;
17741;SDS011;8993;51.822;-2.268;2022-11-12T23:02:30;52.76;;;29.63;;
17741;SDS011;8993;51.822;-2.268;2022-11-12T23:07:34;56.68;;;28.94;;
17741;SDS011;8993;51.822;-2.268;2022-11-12T23:12:38;54.61;;;30.48;;
17741;SDS011;8993;51.822;-2.268;2022-11-12T23:17:43;54.67;;;29.76;;
17741;SDS011;8993;51.822;-2.268;2022-11-12T23:22:47;53.03;;;29.50;;
17741;SDS011;8993;51.822;-2.268;2022-11-12T23:27:51;61.01;;;31.13;;
17741;SDS011;8993;51.822;-2.268;2022-11-12T23:32:55;51.11;;;29.01;;
17741;SDS011;8993;51.822;-2.268;2022-11-12T23:38:00;52.06;;;27.83;;
17741;SDS011;8993;51.822;-2.268;2022-11-12T23:43:06;55.49;;;31.02;;
17741;SDS011;8993;51.822;-2.268;2022-11-12T23:48:10;59.19;;;31.65;;
17741;SDS011;8993;51.822;-2.268;2022-11-12T23:53:14;61.52;;;32.59;;
17741;SDS011;8993;51.822;-2.268;2022-11-12T23:58:18;65.32;;;33.56;;
